sensor_id;sensor_type;location;lat;lon;timestamp;temperature;humidity
29201;DHT22;16244;51.956;12.980;2023-12-20T00:01:04;5.00;99.90
29201;DHT22;16244;51.956;12.980;2023-12-20T00:03:31;5.00;99.90
29201;DHT22;16244;51.956;12.980;2023-12-20T00:05:59;5.00;99.90
29201;DHT22;16244;51.956;12.980;2023-12-20T00:08:26;5.00;99.90
29201;DHT22;16244;51.956;12.980;2023-12-20T00:10:55;5.00;99.90
29201;DHT22;16244;51.956;12.980;2023-12-20T00:13:22;5.00;99.90
29201;DHT22;16244;51.956;12.980;2023-12-20T00:15:50;5.00;99.90
29201;DHT22;16244;51.956;12.980;2023-12-20T00:18:17;5.00;99.90
29201;DHT22;16244;51.956;12.980;2023-12-20T00:20:45;5.00;99.90
29201;DHT22;16244;51.956;12.980;2023-12-20T00:23:12;5.00;99.90
29201;DHT22;16244;51.956;12.980;2023-12-20T00:25:40;5.00;99.90
29201;DHT22;16244;51.956;12.980;2023-12-20T00:28:08;5.00;99.90
29201;DHT22;16244;51.956;12.980;2023-12-20T00:30:36;4.90;99.90
29201;DHT22;16244;51.956;12.980;2023-12-20T00:33:04;4.90;99.90
29201;DHT22;16244;51.956;12.980;2023-12-20T00:35:31;4.90;99.90
29201;DHT22;16244;51.956;12.980;2023-12-20T00:37:58;5.00;99.90
29201;DHT22;16244;51.956;12.980;2023-12-20T00:40:26;5.00;99.90
29201;DHT22;16244;51.956;12.980;2023-12-20T00:42:53;5.00;99.90
29201;DHT22;16244;51.956;12.980;2023-12-20T00:45:22;5.00;99.90
29201;DHT22;16244;51.956;12.980;2023-12-20T00:47:50;5.00;99.90
29201;DHT22;16244;51.956;12.980;2023-12-20T00:50:17;5.00;99.90
29201;DHT22;16244;51.956;12.980;2023-12-20T00:52:45;5.00;99.90
29201;DHT22;16244;51.956;12.980;2023-12-20T00:55:12;5.00;99.90
29201;DHT22;16244;51.956;12.980;2023-12-20T00:57:40;5.00;99.90
29201;DHT22;16244;51.956;12.980;2023-12-20T01:00:08;5.00;99.90
29201;DHT22;16244;51.956;12.980;2023-12-20T01:02:38;5.00;99.90
29201;DHT22;16244;51.956;12.980;2023-12-20T01:05:06;5.10;99.90
29201;DHT22;16244;51.956;12.980;2023-12-20T01:07:35;5.00;99.90
29201;DHT22;16244;51.956;12.980;2023-12-20T01:10:03;5.00;99.90
29201;DHT22;16244;51.956;12.980;2023-12-20T01:12:30;5.10;99.90
29201;DHT22;16244;51.956;12.980;2023-12-20T01:14:58;5.10;99.90
29201;DHT22;16244;51.956;12.980;2023-12-20T01:17:25;5.00;99.90
29201;DHT22;16244;51.956;12.980;2023-12-20T01:19:54;5.00;99.90
29201;DHT22;16244;51.956;12.980;2023-12-20T01:22:21;5.00;99.90
29201;DHT22;16244;51.956;12.980;2023-12-20T01:24:49;5.00;99.90
29201;DHT22;16244;51.956;12.980;2023-12-20T01:27:17;5.00;99.90
29201;DHT22;16244;51.956;12.980;2023-12-20T01:29:49;5.10;99.90
29201;DHT22;16244;51.956;12.980;2023-12-20T01:32:17;5.00;99.90
29201;DHT22;16244;51.956;12.980;2023-12-20T01:34:44;5.00;99.90
29201;DHT22;16244;51.956;12.980;2023-12-20T01:37:13;5.00;99.90
29201;DHT22;16244;51.956;12.980;2023-12-20T01:39:41;5.00;99.90
29201;DHT22;16244;51.956;12.980;2023-12-20T01:42:08;5.00;99.90
29201;DHT22;16244;51.956;12.980;2023-12-20T01:44:36;5.10;99.90
29201;DHT22;16244;51.956;12.980;2023-12-20T01:47:03;5.10;99.90
29201;DHT22;16244;51.956;12.980;2023-12-20T01:49:31;5.00;99.90
29201;DHT22;16244;51.956;12.980;2023-12-20T01:51:58;5.00;99.90
29201;DHT22;16244;51.956;12.980;2023-12-20T01:54:27;5.00;99.90
29201;DHT22;16244;51.956;12.980;2023-12-20T01:56:55;5.00;99.90
29201;DHT22;16244;51.956;12.980;2023-12-20T01:59:23;5.00;99.90
29201;DHT22;16244;51.956;12.980;2023-12-20T02:01:51;5.10;99.90
29201;DHT22;16244;51.956;12.980;2023-12-20T02:04:18;5.10;99.90
29201;DHT22;16244;51.956;12.980;2023-12-20T02:06:46;5.00;99.90
29201;DHT22;16244;51.956;12.980;2023-12-20T02:09:15;5.00;99.90
29201;DHT22;16244;51.956;12.980;2023-12-20T02:11:44;5.10;99.90
29201;DHT22;16244;51.956;12.980;2023-12-20T02:14:11;5.00;99.90
29201;DHT22;16244;51.956;12.980;2023-12-20T02:16:39;5.00;99.90
29201;DHT22;16244;51.956;12.980;2023-12-20T02:19:13;5.10;99.90
29201;DHT22;16244;51.956;12.980;2023-12-20T02:21:42;5.10;99.90
29201;DHT22;16244;51.956;12.980;2023-12-20T02:24:10;5.10;99.90
29201;DHT22;16244;51.956;12.980;2023-12-20T02:26:37;5.00;99.90
29201;DHT22;16244;51.956;12.980;2023-12-20T02:29:05;5.00;99.90
29201;DHT22;16244;51.956;12.980;2023-12-20T02:31:33;5.00;99.90
29201;DHT22;16244;51.956;12.980;2023-12-20T02:34:00;5.00;99.90
29201;DHT22;16244;51.956;12.980;2023-12-20T02:36:28;5.10;99.90
29201;DHT22;16244;51.956;12.980;2023-12-20T02:38:56;5.10;99.90
29201;DHT22;16244;51.956;12.980;2023-12-20T02:41:24;5.00;99.90
29201;DHT22;16244;51.956;12.980;2023-12-20T02:43:51;5.10;99.90
29201;DHT22;16244;51.956;12.980;2023-12-20T02:46:19;5.00;99.90
29201;DHT22;16244;51.956;12.980;2023-12-20T02:48:46;5.10;99.90
29201;DHT22;16244;51.956;12.980;2023-12-20T02:51:14;5.00;99.90
29201;DHT22;16244;51.956;12.980;2023-12-20T02:53:41;5.00;99.90
29201;DHT22;16244;51.956;12.980;2023-12-20T02:56:10;5.00;99.90
29201;DHT22;16244;51.956;12.980;2023-12-20T02:58:38;5.00;99.90
29201;DHT22;16244;51.956;12.980;2023-12-20T03:01:05;5.00;99.90
29201;DHT22;16244;51.956;12.980;2023-12-20T03:03:33;5.00;99.90
29201;DHT22;16244;51.956;12.980;2023-12-20T03:06:00;5.10;99.90
29201;DHT22;16244;51.956;12.980;2023-12-20T03:08:28;5.00;99.90
29201;DHT22;16244;51.956;12.980;2023-12-20T03:10:55;5.00;99.90
29201;DHT22;16244;51.956;12.980;2023-12-20T03:13:24;5.00;99.90
29201;DHT22;16244;51.956;12.980;2023-12-20T03:15:51;5.00;99.90
29201;DHT22;16244;51.956;12.980;2023-12-20T03:18:19;5.00;99.90
29201;DHT22;16244;51.956;12.980;2023-12-20T03:20:46;5.00;99.90
29201;DHT22;16244;51.956;12.980;2023-12-20T03:23:16;5.00;99.90
29201;DHT22;16244;51.956;12.980;2023-12-20T03:25:43;5.00;99.90
29201;DHT22;16244;51.956;12.980;2023-12-20T03:28:11;5.00;99.90
29201;DHT22;16244;51.956;12.980;2023-12-20T03:30:39;5.00;99.90
29201;DHT22;16244;51.956;12.980;2023-12-20T03:33:07;5.00;99.90
29201;DHT22;16244;51.956;12.980;2023-12-20T03:35:35;5.00;99.90
29201;DHT22;16244;51.956;12.980;2023-12-20T03:38:03;5.00;99.90
29201;DHT22;16244;51.956;12.980;2023-12-20T03:40:30;5.00;99.90
29201;DHT22;16244;51.956;12.980;2023-12-20T03:42:58;5.00;99.90
29201;DHT22;16244;51.956;12.980;2023-12-20T03:45:25;5.00;99.90
29201;DHT22;16244;51.956;12.980;2023-12-20T03:47:54;5.10;99.90
29201;DHT22;16244;51.956;12.980;2023-12-20T03:50:22;5.10;99.90
29201;DHT22;16244;51.956;12.980;2023-12-20T03:52:50;5.10;99.90
29201;DHT22;16244;51.956;12.980;2023-12-20T03:55:18;5.10;99.90
29201;DHT22;16244;51.956;12.980;2023-12-20T03:57:45;5.10;99.90
29201;DHT22;16244;51.956;12.980;2023-12-20T04:00:13;5.10;99.90
29201;DHT22;16244;51.956;12.980;2023-12-20T04:02:42;5.10;99.90
29201;DHT22;16244;51.956;12.980;2023-12-20T04:05:11;5.10;99.90
29201;DHT22;16244;51.956;12.980;2023-12-20T04:07:39;5.10;99.90
29201;DHT22;16244;51.956;12.980;2023-12-20T04:10:07;5.10;99.90
29201;DHT22;16244;51.956;12.980;2023-12-20T04:12:35;5.10;99.90
29201;DHT22;16244;51.956;12.980;2023-12-20T04:15:03;5.10;99.90
29201;DHT22;16244;51.956;12.980;2023-12-20T04:17:36;5.10;99.90
29201;DHT22;16244;51.956;12.980;2023-12-20T04:20:04;5.00;99.90
29201;DHT22;16244;51.956;12.980;2023-12-20T04:22:33;5.00;99.90
29201;DHT22;16244;51.956;12.980;2023-12-20T04:25:01;5.00;99.90
29201;DHT22;16244;51.956;12.980;2023-12-20T04:27:29;5.00;99.90
29201;DHT22;16244;51.956;12.980;2023-12-20T04:29:56;5.00;99.90
29201;DHT22;16244;51.956;12.980;2023-12-20T04:32:24;5.00;99.90
29201;DHT22;16244;51.956;12.980;2023-12-20T04:34:51;5.00;99.90
29201;DHT22;16244;51.956;12.980;2023-12-20T04:37:19;4.90;99.90
29201;DHT22;16244;51.956;12.980;2023-12-20T04:39:47;5.00;99.90
29201;DHT22;16244;51.956;12.980;2023-12-20T04:42:15;4.90;99.90
29201;DHT22;16244;51.956;12.980;2023-12-20T04:44:42;4.90;99.90
29201;DHT22;16244;51.956;12.980;2023-12-20T04:47:11;4.90;99.90
29201;DHT22;16244;51.956;12.980;2023-12-20T04:49:38;4.90;99.90
29201;DHT22;16244;51.956;12.980;2023-12-20T04:52:05;4.80;99.90
29201;DHT22;16244;51.956;12.980;2023-12-20T04:54:33;4.80;99.90
29201;DHT22;16244;51.956;12.980;2023-12-20T04:57:03;4.70;99.90
29201;DHT22;16244;51.956;12.980;2023-12-20T04:59:30;4.70;99.90
29201;DHT22;16244;51.956;12.980;2023-12-20T05:01:58;4.60;99.90
29201;DHT22;16244;51.956;12.980;2023-12-20T05:04:25;4.60;99.90
29201;DHT22;16244;51.956;12.980;2023-12-20T05:06:53;4.50;99.90
29201;DHT22;16244;51.956;12.980;2023-12-20T05:09:20;4.50;99.90
29201;DHT22;16244;51.956;12.980;2023-12-20T05:11:47;4.50;99.90
29201;DHT22;16244;51.956;12.980;2023-12-20T05:14:16;4.40;99.90
29201;DHT22;16244;51.956;12.980;2023-12-20T05:16:44;4.30;99.90
29201;DHT22;16244;51.956;12.980;2023-12-20T05:19:11;4.30;99.90
29201;DHT22;16244;51.956;12.980;2023-12-20T05:21:39;4.20;99.90
29201;DHT22;16244;51.956;12.980;2023-12-20T05:24:06;4.10;99.90
29201;DHT22;16244;51.956;12.980;2023-12-20T05:26:34;4.10;99.90
29201;DHT22;16244;51.956;12.980;2023-12-20T05:29:01;4.10;99.90
29201;DHT22;16244;51.956;12.980;2023-12-20T05:31:31;4.10;99.90
29201;DHT22;16244;51.956;12.980;2023-12-20T05:33:58;4.00;99.90
29201;DHT22;16244;51.956;12.980;2023-12-20T05:36:26;4.00;99.90
29201;DHT22;16244;51.956;12.980;2023-12-20T05:38:53;3.90;99.90
29201;DHT22;16244;51.956;12.980;2023-12-20T05:41:21;3.90;99.90
29201;DHT22;16244;51.956;12.980;2023-12-20T05:43:49;3.90;99.90
29201;DHT22;16244;51.956;12.980;2023-12-20T05:46:16;4.00;99.90
29201;DHT22;16244;51.956;12.980;2023-12-20T05:48:45;4.10;99.90
29201;DHT22;16244;51.956;12.980;2023-12-20T05:51:13;4.20;99.90
29201;DHT22;16244;51.956;12.980;2023-12-20T05:53:40;4.30;99.90
29201;DHT22;16244;51.956;12.980;2023-12-20T05:56:08;4.30;99.90
29201;DHT22;16244;51.956;12.980;2023-12-20T05:58:35;4.40;99.90
29201;DHT22;16244;51.956;12.980;2023-12-20T06:01:04;4.40;99.90
29201;DHT22;16244;51.956;12.980;2023-12-20T06:03:31;4.40;99.90
29201;DHT22;16244;51.956;12.980;2023-12-20T06:06:05;4.40;99.90
29201;DHT22;16244;51.956;12.980;2023-12-20T06:08:32;4.30;99.90
29201;DHT22;16244;51.956;12.980;2023-12-20T06:11:00;4.20;99.90
29201;DHT22;16244;51.956;12.980;2023-12-20T06:13:27;4.20;99.90
29201;DHT22;16244;51.956;12.980;2023-12-20T06:15:55;4.10;99.90
29201;DHT22;16244;51.956;12.980;2023-12-20T06:18:23;4.10;99.90
29201;DHT22;16244;51.956;12.980;2023-12-20T06:20:50;4.10;99.90
29201;DHT22;16244;51.956;12.980;2023-12-20T06:23:19;4.00;99.90
29201;DHT22;16244;51.956;12.980;2023-12-20T06:25:47;3.90;99.90
29201;DHT22;16244;51.956;12.980;2023-12-20T06:28:14;4.00;99.90
29201;DHT22;16244;51.956;12.980;2023-12-20T06:30:42;3.90;99.90
29201;DHT22;16244;51.956;12.980;2023-12-20T06:33:09;3.90;99.90
29201;DHT22;16244;51.956;12.980;2023-12-20T06:35:37;3.90;99.90
29201;DHT22;16244;51.956;12.980;2023-12-20T06:38:05;4.00;99.90
29201;DHT22;16244;51.956;12.980;2023-12-20T06:40:33;4.00;99.90
29201;DHT22;16244;51.956;12.980;2023-12-20T06:43:01;3.90;99.90
29201;DHT22;16244;51.956;12.980;2023-12-20T06:45:28;3.90;99.90
29201;DHT22;16244;51.956;12.980;2023-12-20T06:47:56;3.90;99.90
29201;DHT22;16244;51.956;12.980;2023-12-20T06:50:23;3.80;99.90
29201;DHT22;16244;51.956;12.980;2023-12-20T06:52:51;3.80;99.90
29201;DHT22;16244;51.956;12.980;2023-12-20T06:55:19;3.90;99.90
29201;DHT22;16244;51.956;12.980;2023-12-20T06:57:47;3.90;99.90
29201;DHT22;16244;51.956;12.980;2023-12-20T07:00:15;3.90;99.90
29201;DHT22;16244;51.956;12.980;2023-12-20T07:02:44;3.90;99.90
29201;DHT22;16244;51.956;12.980;2023-12-20T07:05:11;3.90;99.90
29201;DHT22;16244;51.956;12.980;2023-12-20T07:07:39;4.00;99.90
29201;DHT22;16244;51.956;12.980;2023-12-20T07:10:07;4.00;99.90
29201;DHT22;16244;51.956;12.980;2023-12-20T07:12:35;4.00;99.90
29201;DHT22;16244;51.956;12.980;2023-12-20T07:15:05;4.10;99.90
29201;DHT22;16244;51.956;12.980;2023-12-20T07:17:34;4.10;99.90
29201;DHT22;16244;51.956;12.980;2023-12-20T07:20:02;4.10;99.90
29201;DHT22;16244;51.956;12.980;2023-12-20T07:22:30;4.20;99.90
29201;DHT22;16244;51.956;12.980;2023-12-20T07:24:58;4.20;99.90
29201;DHT22;16244;51.956;12.980;2023-12-20T07:27:25;4.30;99.90
29201;DHT22;16244;51.956;12.980;2023-12-20T07:29:53;4.30;99.90
29201;DHT22;16244;51.956;12.980;2023-12-20T07:32:22;4.30;99.90
29201;DHT22;16244;51.956;12.980;2023-12-20T07:34:49;4.30;99.90
29201;DHT22;16244;51.956;12.980;2023-12-20T07:37:17;4.30;99.90
29201;DHT22;16244;51.956;12.980;2023-12-20T07:39:44;4.30;99.90
29201;DHT22;16244;51.956;12.980;2023-12-20T07:42:12;4.30;99.90
29201;DHT22;16244;51.956;12.980;2023-12-20T07:44:39;4.40;99.90
29201;DHT22;16244;51.956;12.980;2023-12-20T07:47:07;4.40;99.90
29201;DHT22;16244;51.956;12.980;2023-12-20T07:49:35;4.40;99.90
29201;DHT22;16244;51.956;12.980;2023-12-20T07:52:03;4.40;99.90
29201;DHT22;16244;51.956;12.980;2023-12-20T07:54:31;4.50;99.90
29201;DHT22;16244;51.956;12.980;2023-12-20T07:56:58;4.50;99.90
29201;DHT22;16244;51.956;12.980;2023-12-20T07:59:26;4.40;99.90
29201;DHT22;16244;51.956;12.980;2023-12-20T08:01:53;4.50;99.90
29201;DHT22;16244;51.956;12.980;2023-12-20T08:04:20;4.50;99.90
29201;DHT22;16244;51.956;12.980;2023-12-20T08:06:50;4.50;99.90
29201;DHT22;16244;51.956;12.980;2023-12-20T08:09:18;4.50;99.90
29201;DHT22;16244;51.956;12.980;2023-12-20T08:11:45;4.60;99.90
29201;DHT22;16244;51.956;12.980;2023-12-20T08:14:13;4.60;99.90
29201;DHT22;16244;51.956;12.980;2023-12-20T08:16:40;4.60;99.90
29201;DHT22;16244;51.956;12.980;2023-12-20T08:19:08;4.60;99.90
29201;DHT22;16244;51.956;12.980;2023-12-20T08:21:35;4.60;99.90
29201;DHT22;16244;51.956;12.980;2023-12-20T08:24:05;4.70;99.90
29201;DHT22;16244;51.956;12.980;2023-12-20T08:26:32;4.70;99.90
29201;DHT22;16244;51.956;12.980;2023-12-20T08:29:00;4.70;99.90
29201;DHT22;16244;51.956;12.980;2023-12-20T08:31:28;4.70;99.90
29201;DHT22;16244;51.956;12.980;2023-12-20T08:33:55;4.70;99.90
29201;DHT22;16244;51.956;12.980;2023-12-20T08:36:23;4.70;99.90
29201;DHT22;16244;51.956;12.980;2023-12-20T08:38:51;4.80;99.90
29201;DHT22;16244;51.956;12.980;2023-12-20T08:41:20;4.90;99.90
29201;DHT22;16244;51.956;12.980;2023-12-20T08:43:47;4.90;99.90
29201;DHT22;16244;51.956;12.980;2023-12-20T08:46:15;4.90;99.90
29201;DHT22;16244;51.956;12.980;2023-12-20T08:48:42;4.90;99.90
29201;DHT22;16244;51.956;12.980;2023-12-20T08:51:10;4.90;99.90
29201;DHT22;16244;51.956;12.980;2023-12-20T08:53:38;4.90;99.90
29201;DHT22;16244;51.956;12.980;2023-12-20T08:56:05;4.90;99.90
29201;DHT22;16244;51.956;12.980;2023-12-20T08:58:34;4.90;99.90
29201;DHT22;16244;51.956;12.980;2023-12-20T09:01:02;4.90;99.90
29201;DHT22;16244;51.956;12.980;2023-12-20T09:03:29;4.90;99.90
29201;DHT22;16244;51.956;12.980;2023-12-20T09:05:57;4.90;99.90
29201;DHT22;16244;51.956;12.980;2023-12-20T09:08:25;4.90;99.90
29201;DHT22;16244;51.956;12.980;2023-12-20T09:10:52;4.90;99.90
29201;DHT22;16244;51.956;12.980;2023-12-20T09:13:20;5.10;99.90
29201;DHT22;16244;51.956;12.980;2023-12-20T09:15:49;5.10;99.90
29201;DHT22;16244;51.956;12.980;2023-12-20T09:18:17;5.20;99.90
29201;DHT22;16244;51.956;12.980;2023-12-20T09:20:44;5.20;99.90
29201;DHT22;16244;51.956;12.980;2023-12-20T09:23:12;5.20;99.90
29201;DHT22;16244;51.956;12.980;2023-12-20T09:25:39;5.20;99.90
29201;DHT22;16244;51.956;12.980;2023-12-20T09:28:07;5.20;99.90
29201;DHT22;16244;51.956;12.980;2023-12-20T09:30:34;5.20;99.90
29201;DHT22;16244;51.956;12.980;2023-12-20T09:33:08;5.20;99.90
29201;DHT22;16244;51.956;12.980;2023-12-20T09:35:35;5.20;99.90
29201;DHT22;16244;51.956;12.980;2023-12-20T09:38:03;5.20;99.90
29201;DHT22;16244;51.956;12.980;2023-12-20T09:40:32;5.20;99.90
29201;DHT22;16244;51.956;12.980;2023-12-20T09:43:04;5.20;99.90
29201;DHT22;16244;51.956;12.980;2023-12-20T09:45:31;5.20;99.90
29201;DHT22;16244;51.956;12.980;2023-12-20T09:47:59;5.20;99.90
29201;DHT22;16244;51.956;12.980;2023-12-20T09:50:28;5.20;99.90
29201;DHT22;16244;51.956;12.980;2023-12-20T09:53:01;5.20;99.90
29201;DHT22;16244;51.956;12.980;2023-12-20T09:55:32;5.30;99.90
29201;DHT22;16244;51.956;12.980;2023-12-20T09:58:00;5.30;99.90
29201;DHT22;16244;51.956;12.980;2023-12-20T10:00:27;5.30;99.90
29201;DHT22;16244;51.956;12.980;2023-12-20T10:02:57;5.30;99.90
29201;DHT22;16244;51.956;12.980;2023-12-20T10:05:28;5.40;99.90
29201;DHT22;16244;51.956;12.980;2023-12-20T10:07:56;5.50;99.90
29201;DHT22;16244;51.956;12.980;2023-12-20T10:10:25;5.50;99.90
29201;DHT22;16244;51.956;12.980;2023-12-20T10:13:03;5.60;99.90
29201;DHT22;16244;51.956;12.980;2023-12-20T10:15:32;5.60;99.90
29201;DHT22;16244;51.956;12.980;2023-12-20T10:18:00;5.70;99.90
29201;DHT22;16244;51.956;12.980;2023-12-20T10:20:29;5.80;99.90
29201;DHT22;16244;51.956;12.980;2023-12-20T10:22:58;5.80;99.90
29201;DHT22;16244;51.956;12.980;2023-12-20T10:25:26;5.80;99.90
29201;DHT22;16244;51.956;12.980;2023-12-20T10:28:09;5.80;99.90
29201;DHT22;16244;51.956;12.980;2023-12-20T10:30:37;5.80;99.90
29201;DHT22;16244;51.956;12.980;2023-12-20T10:33:06;5.80;99.90
29201;DHT22;16244;51.956;12.980;2023-12-20T10:35:35;5.70;99.90
29201;DHT22;16244;51.956;12.980;2023-12-20T10:38:05;5.80;99.90
29201;DHT22;16244;51.956;12.980;2023-12-20T10:40:35;5.90;99.90
29201;DHT22;16244;51.956;12.980;2023-12-20T10:43:04;5.90;99.90
29201;DHT22;16244;51.956;12.980;2023-12-20T10:45:32;6.00;99.90
29201;DHT22;16244;51.956;12.980;2023-12-20T10:47:59;6.00;99.90
29201;DHT22;16244;51.956;12.980;2023-12-20T10:50:29;6.00;99.90
29201;DHT22;16244;51.956;12.980;2023-12-20T10:52:58;6.00;99.90
29201;DHT22;16244;51.956;12.980;2023-12-20T10:55:26;6.00;99.90
29201;DHT22;16244;51.956;12.980;2023-12-20T10:57:56;6.00;99.90
29201;DHT22;16244;51.956;12.980;2023-12-20T11:00:25;6.10;99.90
29201;DHT22;16244;51.956;12.980;2023-12-20T11:02:53;6.10;99.90
29201;DHT22;16244;51.956;12.980;2023-12-20T11:05:27;6.10;99.90
29201;DHT22;16244;51.956;12.980;2023-12-20T11:08:04;6.10;99.90
29201;DHT22;16244;51.956;12.980;2023-12-20T11:10:41;6.20;99.90
29201;DHT22;16244;51.956;12.980;2023-12-20T11:13:15;6.20;99.90
29201;DHT22;16244;51.956;12.980;2023-12-20T11:15:44;6.10;99.90
29201;DHT22;16244;51.956;12.980;2023-12-20T11:18:12;6.10;99.90
29201;DHT22;16244;51.956;12.980;2023-12-20T11:20:41;6.10;99.90
29201;DHT22;16244;51.956;12.980;2023-12-20T11:23:10;6.10;99.90
29201;DHT22;16244;51.956;12.980;2023-12-20T11:25:47;6.10;99.90
29201;DHT22;16244;51.956;12.980;2023-12-20T11:28:15;6.10;99.90
29201;DHT22;16244;51.956;12.980;2023-12-20T11:30:46;6.10;99.90
29201;DHT22;16244;51.956;12.980;2023-12-20T11:33:14;6.10;99.90
29201;DHT22;16244;51.956;12.980;2023-12-20T11:35:42;6.20;99.90
29201;DHT22;16244;51.956;12.980;2023-12-20T11:38:13;6.20;99.90
29201;DHT22;16244;51.956;12.980;2023-12-20T11:40:41;6.20;99.90
29201;DHT22;16244;51.956;12.980;2023-12-20T11:43:09;6.20;99.90
29201;DHT22;16244;51.956;12.980;2023-12-20T11:45:37;6.30;99.90
29201;DHT22;16244;51.956;12.980;2023-12-20T11:48:06;6.40;99.90
29201;DHT22;16244;51.956;12.980;2023-12-20T11:50:34;6.40;99.90
29201;DHT22;16244;51.956;12.980;2023-12-20T11:53:01;6.30;99.90
29201;DHT22;16244;51.956;12.980;2023-12-20T11:55:30;6.30;99.90
29201;DHT22;16244;51.956;12.980;2023-12-20T11:57:58;6.30;99.90
29201;DHT22;16244;51.956;12.980;2023-12-20T12:00:26;6.20;99.90
29201;DHT22;16244;51.956;12.980;2023-12-20T12:02:57;6.20;99.90
29201;DHT22;16244;51.956;12.980;2023-12-20T12:05:25;6.20;99.90
29201;DHT22;16244;51.956;12.980;2023-12-20T12:07:53;6.20;99.90
29201;DHT22;16244;51.956;12.980;2023-12-20T12:10:21;6.20;99.90
29201;DHT22;16244;51.956;12.980;2023-12-20T12:12:50;6.20;99.90
29201;DHT22;16244;51.956;12.980;2023-12-20T12:15:18;6.10;99.90
29201;DHT22;16244;51.956;12.980;2023-12-20T12:17:52;6.10;99.90
29201;DHT22;16244;51.956;12.980;2023-12-20T12:20:20;6.10;99.90
29201;DHT22;16244;51.956;12.980;2023-12-20T12:22:57;6.10;99.90
29201;DHT22;16244;51.956;12.980;2023-12-20T12:25:25;6.10;99.90
29201;DHT22;16244;51.956;12.980;2023-12-20T12:27:55;6.10;99.90
29201;DHT22;16244;51.956;12.980;2023-12-20T12:30:23;6.20;99.90
29201;DHT22;16244;51.956;12.980;2023-12-20T12:32:50;6.10;99.90
29201;DHT22;16244;51.956;12.980;2023-12-20T12:35:18;6.20;99.90
29201;DHT22;16244;51.956;12.980;2023-12-20T12:37:46;6.20;99.90
29201;DHT22;16244;51.956;12.980;2023-12-20T12:40:15;6.20;99.90
29201;DHT22;16244;51.956;12.980;2023-12-20T12:42:44;6.20;99.90
29201;DHT22;16244;51.956;12.980;2023-12-20T12:45:27;6.20;99.90
29201;DHT22;16244;51.956;12.980;2023-12-20T12:47:54;6.20;99.90
29201;DHT22;16244;51.956;12.980;2023-12-20T12:50:22;6.20;99.90
29201;DHT22;16244;51.956;12.980;2023-12-20T12:52:49;6.20;99.90
29201;DHT22;16244;51.956;12.980;2023-12-20T12:55:17;6.10;99.90
29201;DHT22;16244;51.956;12.980;2023-12-20T12:57:44;6.10;99.90
29201;DHT22;16244;51.956;12.980;2023-12-20T13:00:12;6.00;99.90
29201;DHT22;16244;51.956;12.980;2023-12-20T13:02:41;6.00;99.90
29201;DHT22;16244;51.956;12.980;2023-12-20T13:05:09;6.00;99.90
29201;DHT22;16244;51.956;12.980;2023-12-20T13:07:37;6.00;99.90
29201;DHT22;16244;51.956;12.980;2023-12-20T13:10:06;6.00;99.90
29201;DHT22;16244;51.956;12.980;2023-12-20T13:12:35;6.00;99.90
29201;DHT22;16244;51.956;12.980;2023-12-20T13:15:02;6.00;99.90
29201;DHT22;16244;51.956;12.980;2023-12-20T13:17:31;6.00;99.90
29201;DHT22;16244;51.956;12.980;2023-12-20T13:19:59;6.00;99.90
29201;DHT22;16244;51.956;12.980;2023-12-20T13:22:27;6.10;99.90
29201;DHT22;16244;51.956;12.980;2023-12-20T13:24:55;6.10;99.90
29201;DHT22;16244;51.956;12.980;2023-12-20T13:27:23;6.10;99.90
29201;DHT22;16244;51.956;12.980;2023-12-20T13:29:50;6.10;99.90
29201;DHT22;16244;51.956;12.980;2023-12-20T13:32:17;6.20;99.90
29201;DHT22;16244;51.956;12.980;2023-12-20T13:34:46;6.20;99.90
29201;DHT22;16244;51.956;12.980;2023-12-20T13:37:15;6.20;99.90
29201;DHT22;16244;51.956;12.980;2023-12-20T13:39:42;6.20;99.90
29201;DHT22;16244;51.956;12.980;2023-12-20T13:42:10;6.20;99.90
29201;DHT22;16244;51.956;12.980;2023-12-20T13:44:37;6.20;99.90
29201;DHT22;16244;51.956;12.980;2023-12-20T13:47:05;6.20;99.90
29201;DHT22;16244;51.956;12.980;2023-12-20T13:49:32;6.20;99.90
29201;DHT22;16244;51.956;12.980;2023-12-20T13:52:00;6.20;99.90
29201;DHT22;16244;51.956;12.980;2023-12-20T13:54:28;6.30;99.90
29201;DHT22;16244;51.956;12.980;2023-12-20T13:56:56;6.40;99.90
29201;DHT22;16244;51.956;12.980;2023-12-20T13:59:24;6.40;99.90
29201;DHT22;16244;51.956;12.980;2023-12-20T14:01:52;6.40;99.90
29201;DHT22;16244;51.956;12.980;2023-12-20T14:04:20;6.40;99.90
29201;DHT22;16244;51.956;12.980;2023-12-20T14:06:47;6.40;99.90
29201;DHT22;16244;51.956;12.980;2023-12-20T14:09:15;6.30;99.90
29201;DHT22;16244;51.956;12.980;2023-12-20T14:11:44;6.30;99.90
29201;DHT22;16244;51.956;12.980;2023-12-20T14:14:12;6.30;99.90
29201;DHT22;16244;51.956;12.980;2023-12-20T14:16:39;6.30;99.90
29201;DHT22;16244;51.956;12.980;2023-12-20T14:19:07;6.30;99.90
29201;DHT22;16244;51.956;12.980;2023-12-20T14:21:35;6.20;99.90
29201;DHT22;16244;51.956;12.980;2023-12-20T14:24:04;6.20;99.90
29201;DHT22;16244;51.956;12.980;2023-12-20T14:26:31;6.20;99.90
29201;DHT22;16244;51.956;12.980;2023-12-20T14:29:00;6.10;99.90
29201;DHT22;16244;51.956;12.980;2023-12-20T14:31:28;6.10;99.90
29201;DHT22;16244;51.956;12.980;2023-12-20T14:33:55;6.10;99.90
29201;DHT22;16244;51.956;12.980;2023-12-20T14:36:22;6.00;99.90
29201;DHT22;16244;51.956;12.980;2023-12-20T14:38:50;6.00;99.90
29201;DHT22;16244;51.956;12.980;2023-12-20T14:41:17;6.00;99.90
29201;DHT22;16244;51.956;12.980;2023-12-20T14:43:45;6.00;99.90
29201;DHT22;16244;51.956;12.980;2023-12-20T14:46:14;6.10;99.90
29201;DHT22;16244;51.956;12.980;2023-12-20T14:48:42;6.00;99.90
29201;DHT22;16244;51.956;12.980;2023-12-20T14:51:10;6.00;99.90
29201;DHT22;16244;51.956;12.980;2023-12-20T14:53:38;6.00;99.90
29201;DHT22;16244;51.956;12.980;2023-12-20T14:56:06;6.00;99.90
29201;DHT22;16244;51.956;12.980;2023-12-20T14:58:33;6.00;99.90
29201;DHT22;16244;51.956;12.980;2023-12-20T15:01:01;6.00;99.90
29201;DHT22;16244;51.956;12.980;2023-12-20T15:03:30;5.90;99.90
29201;DHT22;16244;51.956;12.980;2023-12-20T15:05:58;5.90;99.90
29201;DHT22;16244;51.956;12.980;2023-12-20T15:08:25;5.90;99.90
29201;DHT22;16244;51.956;12.980;2023-12-20T15:10:53;5.90;99.90
29201;DHT22;16244;51.956;12.980;2023-12-20T15:13:20;5.80;99.90
29201;DHT22;16244;51.956;12.980;2023-12-20T15:15:48;5.80;99.90
29201;DHT22;16244;51.956;12.980;2023-12-20T15:18:15;5.80;99.90
29201;DHT22;16244;51.956;12.980;2023-12-20T15:20:44;5.70;99.90
29201;DHT22;16244;51.956;12.980;2023-12-20T15:23:14;5.70;99.90
29201;DHT22;16244;51.956;12.980;2023-12-20T15:25:41;5.70;99.90
29201;DHT22;16244;51.956;12.980;2023-12-20T15:28:09;5.60;99.90
29201;DHT22;16244;51.956;12.980;2023-12-20T15:30:37;5.60;99.90
29201;DHT22;16244;51.956;12.980;2023-12-20T15:33:05;5.60;99.90
29201;DHT22;16244;51.956;12.980;2023-12-20T15:35:32;5.50;99.90